Time;durP1;ratioP1;P1;durP2;ratioP2;P2;SDS_P1;SDS_P2;PMS_P1;PMS_P2;Temp;Humidity;BMP_temperature;BMP_pressure;BME280_temperature;BME280_humidity;BME280_pressure;Samples;Min_cycle;Max_cycle;Signal;HPM_P1;HPM_P2
2023/07/18 00:00:36;;;;;;;;;;;;;;;28.12;37.89;101325.29;2391871;74;52496;-75
2023/07/18 00:03:37;;;;;;;;;;;;;;;28.12;37.87;101322.03;2391723;74;22363;-75
2023/07/18 00:06:41;;;;;;;;;;;;;;;28.11;37.89;101325.83;2396226;73;51395;-74
2023/07/18 00:09:42;;;;;;;;;;;;;;;28.10;37.90;101324.14;2364305;74;22402;-75
2023/07/18 00:12:43;;;;;;;;;;;;;;;28.11;37.88;101323.64;2396084;74;50355;-74
2023/07/18 00:15:46;;;;;;;;;;;;;;;28.10;37.88;101327.41;2361701;74;50283;-75
2023/07/18 00:18:50;;;;;;;;;;;;;;;28.11;37.90;101331.80;2361790;74;51593;-74
2023/07/18 00:21:51;;;;;;;;;;;;;;;28.10;37.89;101336.92;2362075;74;50438;-75
2023/07/18 00:24:53;;;;;;;;;;;;;;;28.10;37.90;101335.56;2389136;74;52593;-74
2023/07/18 00:27:55;;;;;;;;;;;;;;;28.10;37.88;101329.59;2334609;74;51241;-74
2023/07/18 00:30:56;;;;;;;;;;;;;;;28.10;37.91;101335.56;2395147;74;50290;-76
2023/07/18 00:33:58;;;;;;;;;;;;;;;28.08;37.91;101339.89;2395166;74;50241;-74
2023/07/18 00:36:59;;;;;;;;;;;;;;;28.08;37.92;101334.96;2389079;73;51122;-75
2023/07/18 00:40:02;;;;;;;;;;;;;;;28.08;37.91;101338.53;2362307;74;51524;-74
2023/07/18 00:43:04;;;;;;;;;;;;;;;28.07;37.92;101331.41;2396064;74;50307;-74
2023/07/18 00:46:06;;;;;;;;;;;;;;;28.07;37.92;101333.31;2395153;74;50280;-75
2023/07/18 00:49:08;;;;;;;;;;;;;;;28.07;37.94;101340.94;2394931;73;50759;-74
2023/07/18 00:52:10;;;;;;;;;;;;;;;28.08;37.93;101333.59;2395046;74;50068;-76
2023/07/18 00:55:12;;;;;;;;;;;;;;;28.07;37.96;101337.39;2395004;73;51581;-75
2023/07/18 00:58:14;;;;;;;;;;;;;;;28.07;37.96;101340.11;2394871;73;50744;-75
2023/07/18 01:01:16;;;;;;;;;;;;;;;28.06;37.95;101346.09;2395201;74;50251;-75
2023/07/18 01:04:18;;;;;;;;;;;;;;;28.07;37.97;101344.19;2395076;73;50313;-73
2023/07/18 01:07:20;;;;;;;;;;;;;;;28.04;37.99;101338.68;2361438;74;50783;-74
2023/07/18 01:10:25;;;;;;;;;;;;;;;28.06;37.99;101338.47;2395688;74;50481;-75
2023/07/18 01:13:27;;;;;;;;;;;;;;;28.05;38.01;101334.06;2390760;74;51203;-74
2023/07/18 01:16:28;;;;;;;;;;;;;;;28.04;38.00;101335.14;2391452;73;50238;-75
2023/07/18 01:19:30;;;;;;;;;;;;;;;28.04;38.01;101331.87;2391589;74;50661;-75
2023/07/18 01:22:32;;;;;;;;;;;;;;;28.04;38.02;101335.14;2397660;74;50222;-75
2023/07/18 01:25:34;;;;;;;;;;;;;;;28.04;38.06;101335.14;2391432;73;51760;-74
2023/07/18 01:28:35;;;;;;;;;;;;;;;28.03;38.04;101334.31;2391373;73;50505;-74
2023/07/18 01:31:37;;;;;;;;;;;;;;;28.03;38.07;101336.18;2397467;73;51398;-75
2023/07/18 01:34:39;;;;;;;;;;;;;;;28.01;38.04;101327.73;2392447;72;51452;-76
2023/07/18 01:37:40;;;;;;;;;;;;;;;28.03;38.03;101344.34;2391372;74;49529;-74
2023/07/18 01:40:42;;;;;;;;;;;;;;;28.01;38.07;101344.05;2390533;74;50425;-74
2023/07/18 01:43:43;;;;;;;;;;;;;;;28.01;38.08;101337.25;2395116;73;50684;-74
2023/07/18 01:46:45;;;;;;;;;;;;;;;28.02;38.09;101338.08;2361227;74;51427;-75
2023/07/18 01:49:47;;;;;;;;;;;;;;;28.01;38.08;101338.61;2334996;74;51068;-75
2023/07/18 01:52:49;;;;;;;;;;;;;;;28.00;38.10;101342.41;2361476;74;51512;-75
2023/07/18 01:55:50;;;;;;;;;;;;;;;28.01;38.10;101341.33;2389034;74;50942;-76
2023/07/18 01:58:52;;;;;;;;;;;;;;;28.00;38.07;101342.91;2361345;74;50376;-75
2023/07/18 02:01:53;;;;;;;;;;;;;;;27.99;38.10;101336.64;2389269;74;52383;-75
2023/07/18 02:04:58;;;;;;;;;;;;;;;28.00;38.10;101345.63;2361613;74;51485;-75
2023/07/18 02:08:00;;;;;;;;;;;;;;;27.99;38.10;101336.64;2394841;73;50511;-75
2023/07/18 02:11:01;;;;;;;;;;;;;;;27.99;38.12;101344.80;2380987;73;50381;-76
2023/07/18 02:14:03;;;;;;;;;;;;;;;27.98;38.11;101339.61;2363624;74;51214;-75
2023/07/18 02:17:05;;;;;;;;;;;;;;;27.98;38.13;101348.59;2391327;74;51487;-75
2023/07/18 02:20:09;;;;;;;;;;;;;;;27.98;38.12;101353.22;2391521;74;51409;-75
2023/07/18 02:23:11;;;;;;;;;;;;;;;27.97;38.14;101357.80;2397462;74;51561;-75
2023/07/18 02:26:14;;;;;;;;;;;;;;;27.96;38.16;101365.67;2391241;73;52558;-75
2023/07/18 02:29:15;;;;;;;;;;;;;;;27.97;38.17;101367.86;2391417;73;50351;-75
2023/07/18 02:32:17;;;;;;;;;;;;;;;27.96;38.17;101371.11;2391376;73;51523;-74
2023/07/18 02:35:19;;;;;;;;;;;;;;;27.96;38.17;101376.55;2397290;73;51498;-75
2023/07/18 02:38:21;;;;;;;;;;;;;;;27.95;38.17;101369.46;2391106;74;52669;-74
2023/07/18 02:41:22;;;;;;;;;;;;;;;27.95;38.17;101373.55;2389706;74;51449;-74
2023/07/18 02:44:24;;;;;;;;;;;;;;;27.95;38.17;101374.05;2397427;73;50633;-75
2023/07/18 02:47:25;;;;;;;;;;;;;;;27.94;38.19;101377.30;2397293;73;50250;-75
2023/07/18 02:50:27;;;;;;;;;;;;;;;27.94;38.19;101385.47;2391528;73;49540;-75
2023/07/18 02:53:29;;;;;;;;;;;;;;;27.94;38.18;101391.44;2391545;74;50747;-75
2023/07/18 02:56:32;;;;;;;;;;;;;;;27.93;38.20;101396.06;2391360;73;50359;-75
2023/07/18 02:59:33;;;;;;;;;;;;;;;27.93;38.19;101394.70;2397766;73;50758;-75
2023/07/18 03:02:35;;;;;;;;;;;;;;;27.92;38.18;101386.22;2391852;74;51005;-75
2023/07/18 03:05:37;;;;;;;;;;;;;;;27.92;38.20;101395.73;2392396;73;51996;-74
2023/07/18 03:08:39;;;;;;;;;;;;;;;27.92;38.18;101392.19;2390029;74;51550;-75
2023/07/18 03:11:41;;;;;;;;;;;;;;;27.91;38.19;101396.81;2396846;74;50524;-74
2023/07/18 03:14:42;;;;;;;;;;;;;;;27.90;38.18;101400.59;2363980;74;51537;-74
2023/07/18 03:17:44;;;;;;;;;;;;;;;27.91;38.20;101409.05;2391553;73;51441;-74
2023/07/18 03:20:45;;;;;;;;;;;;;;;27.91;38.20;101403.61;2397550;73;52131;-74
2023/07/18 03:23:47;;;;;;;;;;;;;;;27.90;38.21;101403.32;2391570;73;51384;-74
2023/07/18 03:26:49;;;;;;;;;;;;;;;27.90;38.22;101405.18;2363538;74;52040;-75
2023/07/18 03:29:50;;;;;;;;;;;;;;;27.91;38.22;101400.06;2391570;74;51564;-74
2023/07/18 03:32:52;;;;;;;;;;;;;;;27.90;38.22;101400.59;2397489;74;51473;-75
2023/07/18 03:35:53;;;;;;;;;;;;;;;27.90;38.23;101399.23;2397410;73;50619;-75
2023/07/18 03:38:55;;;;;;;;;;;;;;;27.89;38.23;101409.80;2363402;74;51053;-74
2023/07/18 03:41:57;;;;;;;;;;;;;;;27.90;38.25;101411.48;2362548;74;50665;-75
2023/07/18 03:44:58;;;;;;;;;;;;;;;27.89;38.23;101404.36;2397720;73;50612;-74
2023/07/18 03:48:00;;;;;;;;;;;;;;;27.90;38.26;101407.40;2391478;73;50096;-75
2023/07/18 03:51:05;;;;;;;;;;;;;;;27.89;38.29;101402.17;2391551;73;51690;-75
2023/07/18 03:54:07;;;;;;;;;;;;;;;27.89;38.28;101402.17;2391615;74;51580;-74
2023/07/18 03:57:08;;;;;;;;;;;;;;;27.89;38.28;101398.92;2397243;74;51361;-75
2023/07/18 04:00:14;;;;;;;;;;;;;;;27.88;38.28;101390.47;2397646;73;51496;-74
2023/07/18 04:03:15;;;;;;;;;;;;;;;27.90;38.31;101401.10;2363943;74;52622;-75
2023/07/18 04:06:17;;;;;;;;;;;;;;;27.88;38.29;101402.70;2391647;74;51392;-76
2023/07/18 04:09:19;;;;;;;;;;;;;;;27.88;38.35;101401.34;2393494;73;50613;-75
2023/07/18 04:12:21;;;;;;;;;;;;;;;27.89;38.35;101401.64;2396871;73;50660;-75
2023/07/18 04:15:22;;;;;;;;;;;;;;;27.88;38.34;101397.27;2397809;74;50166;-75
2023/07/18 04:18:24;;;;;;;;;;;;;;;27.88;38.35;101402.70;2391938;73;50043;-75
2023/07/18 04:21:26;;;;;;;;;;;;;;;27.88;38.35;101399.98;2399056;74;50031;-74
2023/07/18 04:24:27;;;;;;;;;;;;;;;27.88;38.34;101407.32;2398087;73;50282;-75
2023/07/18 04:27:29;;;;;;;;;;;;;;;27.88;38.33;101413.59;2392785;74;51728;-75
2023/07/18 04:30:30;;;;;;;;;;;;;;;27.88;38.36;101415.48;2392998;73;50749;-75
2023/07/18 04:33:34;;;;;;;;;;;;;;;27.87;38.36;101409.19;2394439;74;51595;-75
2023/07/18 04:36:35;;;;;;;;;;;;;;;27.88;38.35;101410.87;2399749;73;50713;-74
2023/07/18 04:39:37;;;;;;;;;;;;;;;27.87;38.39;101405.11;2363869;74;52319;-74
2023/07/18 04:42:38;;;;;;;;;;;;;;;27.88;38.38;101399.98;2364229;74;51429;-74
2023/07/18 04:45:44;;;;;;;;;;;;;;;27.87;38.38;101403.75;2392323;74;50287;-74
2023/07/18 04:48:45;;;;;;;;;;;;;;;27.88;38.37;101404.06;2399748;74;51507;-74
2023/07/18 04:51:47;;;;;;;;;;;;;;;27.88;38.40;101406.78;2394812;74;52287;-74
2023/07/18 04:54:49;;;;;;;;;;;;;;;27.90;38.36;101410.12;2392391;73;51170;-75
2023/07/18 04:57:50;;;;;;;;;;;;;;;27.93;38.34;101417.81;2392745;74;50238;-74
2023/07/18 05:00:54;;;;;;;;;;;;;;;27.95;38.37;101403.97;2393511;73;50703;-74
2023/07/18 05:03:57;;;;;;;;;;;;;;;27.99;38.24;101404.66;2400550;73;22338;-75
2023/07/18 05:07:03;;;;;;;;;;;;;;;28.11;38.08;101412.06;2365765;74;50148;-74
2023/07/18 05:10:02;;;;;;;;;;;;;;;28.23;37.92;101412.94;2389848;74;21754;-75
2023/07/18 05:13:03;;;;;;;;;;;;;;;28.26;37.81;101408.42;2390242;74;50055;-75
2023/07/18 05:16:05;;;;;;;;;;;;;;;28.31;37.75;101415.36;2395241;73;50345;-75
2023/07/18 05:19:06;;;;;;;;;;;;;;;28.33;37.76;101413.75;2335184;74;50219;-75
2023/07/18 05:22:08;;;;;;;;;;;;;;;28.37;37.68;101414.43;2395175;74;50184;-75
2023/07/18 05:25:11;;;;;;;;;;;;;;;28.42;37.64;101425.46;2361595;74;51520;-74
2023/07/18 05:28:12;;;;;;;;;;;;;;;28.47;37.58;101427.53;2394824;74;50671;-74
2023/07/18 05:31:14;;;;;;;;;;;;;;;28.52;37.56;101429.56;2389185;74;52540;-75
2023/07/18 05:34:16;;;;;;;;;;;;;;;28.53;37.58;101423.05;2361437;74;50670;-75
2023/07/18 05:37:17;;;;;;;;;;;;;;;28.53;37.55;101416.23;2394754;73;51528;-75
2023/07/18 05:40:19;;;;;;;;;;;;;;;28.58;37.48;101418.56;2395728;74;50607;-74
2023/07/18 05:43:21;;;;;;;;;;;;;;;28.63;37.43;101420.59;2363310;74;50024;-75
2023/07/18 05:46:22;;;;;;;;;;;;;;;28.67;37.38;101415.00;2391371;73;50265;-75
2023/07/18 05:49:24;;;;;;;;;;;;;;;28.73;37.31;101418.14;2391401;73;50629;-75
2023/07/18 05:52:26;;;;;;;;;;;;;;;28.78;37.24;101412.83;2397557;73;51501;-74
2023/07/18 05:55:28;;;;;;;;;;;;;;;28.76;37.28;101412.22;2391434;74;51387;-74
2023/07/18 05:58:31;;;;;;;;;;;;;;;28.82;37.21;101413.17;2397289;74;52357;-75
2023/07/18 06:01:32;;;;;;;;;;;;;;;28.84;37.17;101406.97;2391772;74;51403;-75
2023/07/18 06:04:36;;;;;;;;;;;;;;;28.87;37.14;101411.94;2397524;73;50715;-75
2023/07/18 06:07:37;;;;;;;;;;;;;;;28.92;37.04;101400.35;2390414;74;51298;-74
2023/07/18 06:10:39;;;;;;;;;;;;;;;28.95;36.99;101408.05;2395689;74;50381;-74
2023/07/18 06:13:41;;;;;;;;;;;;;;;28.96;37.00;101407.00;2361668;74;51532;-74
2023/07/18 06:16:43;;;;;;;;;;;;;;;28.96;36.96;101404.28;2394730;73;50180;-74
2023/07/18 06:19:46;;;;;;;;;;;;;;;28.98;36.97;101407.57;2396416;74;51424;-74
2023/07/18 06:22:47;;;;;;;;;;;;;;;28.99;36.95;101405.98;2388706;73;50491;-74
2023/07/18 06:25:49;;;;;;;;;;;;;;;29.05;36.89;101417.87;2362090;74;50547;-74
2023/07/18 06:28:51;;;;;;;;;;;;;;;29.06;36.86;101419.55;2361197;74;51506;-74
2023/07/18 06:31:56;;;;;;;;;;;;;;;29.11;36.84;101423.77;2394912;74;50519;-74
2023/07/18 06:34:56;;;;;;;;;;;;;;;29.12;36.79;101421.32;2361891;74;23020;-75
2023/07/18 06:37:57;;;;;;;;;;;;;;;29.08;36.89;101419.61;2361203;74;53413;-74
2023/07/18 06:40:59;;;;;;;;;;;;;;;29.07;36.83;101415.75;2394929;74;51465;-74
2023/07/18 06:44:01;;;;;;;;;;;;;;;29.08;36.79;101420.97;2388917;74;52584;-74
2023/07/18 06:47:02;;;;;;;;;;;;;;;29.11;36.78;101426.48;2361370;74;51492;-76
2023/07/18 06:50:04;;;;;;;;;;;;;;;29.14;36.74;101423.83;2394997;73;50531;-74
2023/07/18 06:53:06;;;;;;;;;;;;;;;29.16;36.72;101430.70;2395417;73;50254;-75
2023/07/18 06:56:07;;;;;;;;;;;;;;;29.19;36.70;101425.31;2389516;74;51671;-75
2023/07/18 06:59:09;;;;;;;;;;;;;;;29.19;36.72;101422.05;2361253;74;52686;-75
2023/07/18 07:02:11;;;;;;;;;;;;;;;29.19;36.67;101423.41;2395027;74;50329;-75
2023/07/18 07:05:14;;;;;;;;;;;;;;;29.22;36.64;101421.57;2361564;74;52012;-75
2023/07/18 07:08:18;;;;;;;;;;;;;;;29.24;36.62;101428.16;2334766;74;52795;-75
2023/07/18 07:11:19;;;;;;;;;;;;;;;29.25;36.54;101427.91;2395126;74;22328;-75
2023/07/18 07:14:20;;;;;;;;;;;;;;;29.25;36.53;101425.17;2361316;74;51527;-76
2023/07/18 07:17:22;;;;;;;;;;;;;;;29.27;36.46;101418.97;2394738;74;51444;-75
2023/07/18 07:20:25;;;;;;;;;;;;;;;29.26;36.44;101417.31;2389080;74;51695;-75
2023/07/18 07:23:28;;;;;;;;;;;;;;;29.26;36.49;101413.23;2362505;74;50691;-75
2023/07/18 07:26:29;;;;;;;;;;;;;;;29.29;36.43;101426.37;2395323;74;50305;-75
2023/07/18 07:29:31;;;;;;;;;;;;;;;29.28;36.43;101428.79;2395234;73;50334;-75
2023/07/18 07:32:33;;;;;;;;;;;;;;;29.31;36.37;101424.76;2361366;74;50636;-75
2023/07/18 07:35:34;;;;;;;;;;;;;;;29.30;36.35;101422.58;2361491;74;50197;-75
2023/07/18 07:38:37;;;;;;;;;;;;;;;29.29;36.33;101416.84;2394848;73;50694;-75
2023/07/18 07:41:38;;;;;;;;;;;;;;;29.30;36.38;101413.03;2394915;73;51501;-74
2023/07/18 07:44:40;;;;;;;;;;;;;;;29.32;36.35;101422.89;2395042;74;51486;-74
2023/07/18 07:47:41;;;;;;;;;;;;;;;29.29;36.37;101410.02;2361282;74;50750;-74
2023/07/18 07:50:43;;;;;;;;;;;;;;;29.30;36.35;101417.66;2394927;73;50335;-74
2023/07/18 07:53:45;;;;;;;;;;;;;;;29.30;36.37;101414.39;2395645;74;51627;-74
2023/07/18 07:56:48;;;;;;;;;;;;;;;29.29;36.42;101416.84;2390657;74;51196;-75
2023/07/18 07:59:50;;;;;;;;;;;;;;;29.27;36.40;101412.69;2391441;74;51564;-74
2023/07/18 08:02:52;;;;;;;;;;;;;;;29.24;36.37;101411.80;2397438;74;51528;-75
2023/07/18 08:05:54;;;;;;;;;;;;;;;29.27;36.30;101407.23;2363777;74;52272;-74
2023/07/18 08:08:55;;;;;;;;;;;;;;;29.23;36.36;101410.95;2391272;73;50943;-75
2023/07/18 08:11:58;;;;;;;;;;;;;;;29.20;36.41;101400.52;2391473;73;51492;-76
2023/07/18 08:15:00;;;;;;;;;;;;;;;29.24;36.37;101411.27;2391484;73;50653;-74
2023/07/18 08:18:01;;;;;;;;;;;;;;;29.16;36.46;101410.26;2391304;74;53250;-75
2023/07/18 08:21:03;;;;;;;;;;;;;;;29.12;36.46;101409.05;2391061;74;51728;-74
2023/07/18 08:24:05;;;;;;;;;;;;;;;29.14;36.34;101401.48;2390841;74;50245;-74
2023/07/18 08:27:07;;;;;;;;;;;;;;;29.13;36.40;101401.16;2397134;74;50331;-74
2023/07/18 08:30:09;;;;;;;;;;;;;;;29.14;36.46;101396.03;2391463;73;51444;-74
2023/07/18 08:33:11;;;;;;;;;;;;;;;29.09;36.57;101396.73;2391536;74;51189;-76
2023/07/18 08:36:12;;;;;;;;;;;;;;;29.13;36.46;101401.70;2391215;73;50318;-76
2023/07/18 08:39:14;;;;;;;;;;;;;;;29.12;36.47;101394.07;2391449;73;50275;-74
2023/07/18 08:42:16;;;;;;;;;;;;;;;29.12;36.39;101389.16;2397450;74;50256;-74
2023/07/18 08:45:17;;;;;;;;;;;;;;;29.14;36.33;101386.49;2391330;73;49584;-75
2023/07/18 08:48:19;;;;;;;;;;;;;;;29.11;36.36;101381.52;2397192;74;51544;-75
2023/07/18 08:51:25;;;;;;;;;;;;;;;29.10;36.31;101379.84;2397301;73;50251;-75
2023/07/18 08:54:24;;;;;;;;;;;;;;;29.10;36.16;101378.48;2396833;74;22188;-75
2023/07/18 08:57:26;;;;;;;;;;;;;;;29.08;36.09;101370.56;2388581;74;51028;-75
2023/07/18 09:00:28;;;;;;;;;;;;;;;29.04;36.24;101367.14;2394851;73;51620;-76
2023/07/18 09:03:29;;;;;;;;;;;;;;;29.00;36.34;101359.95;2394976;74;50192;-75
2023/07/18 09:06:32;;;;;;;;;;;;;;;28.97;36.40;101366.42;2361193;74;50422;-75
2023/07/18 09:09:33;;;;;;;;;;;;;;;28.98;36.36;101359.89;2389006;74;52518;-75
2023/07/18 09:12:35;;;;;;;;;;;;;;;28.97;36.40;101362.34;2361480;74;50354;-76
2023/07/18 09:15:37;;;;;;;;;;;;;;;28.98;36.39;101357.17;2395112;74;50668;-76
2023/07/18 09:18:40;;;;;;;;;;;;;;;28.94;36.48;101364.17;2394980;74;50661;-75
2023/07/18 09:21:42;;;;;;;;;;;;;;;28.95;36.45;101350.84;2361379;74;49637;-75
2023/07/18 09:24:45;;;;;;;;;;;;;;;28.94;36.45;101345.10;2362581;74;51562;-76
2023/07/18 09:27:48;;;;;;;;;;;;;;;28.93;36.43;101347.52;2397086;74;50401;-78
2023/07/18 09:30:50;;;;;;;;;;;;;;;28.90;36.37;101344.72;2397470;74;50168;-74
2023/07/18 09:33:54;;;;;;;;;;;;;;;28.87;36.33;101336.48;2363642;74;51237;-75
2023/07/18 09:36:59;;;;;;;;;;;;;;;28.88;36.19;101328.63;2396977;73;51695;-76
2023/07/18 09:40:01;;;;;;;;;;;;;;;28.87;36.19;101332.94;2397410;74;50754;-76
2023/07/18 09:43:02;;;;;;;;;;;;;;;28.84;36.24;101327.44;2397366;74;51422;-75
2023/07/18 09:46:04;;;;;;;;;;;;;;;28.85;36.26;101330.98;2391463;74;52333;-75
2023/07/18 09:49:06;;;;;;;;;;;;;;;28.83;36.26;101329.88;2397192;73;51511;-75
2023/07/18 09:52:08;;;;;;;;;;;;;;;28.82;36.30;101336.91;2397378;74;51498;-75
2023/07/18 09:55:12;;;;;;;;;;;;;;;28.80;36.31;101334.44;2395980;74;50605;-76
2023/07/18 09:58:14;;;;;;;;;;;;;;;28.79;36.27;101324.59;2334978;74;52400;-75
2023/07/18 10:01:19;;;;;;;;;;;;;;;28.79;36.25;101327.31;2395001;74;51469;-75
2023/07/18 10:04:20;;;;;;;;;;;;;;;28.77;36.14;101315.84;2395342;73;22338;-75
2023/07/18 10:07:22;;;;;;;;;;;;;;;28.76;36.10;101322.88;2394918;74;51541;-75
2023/07/18 10:10:23;;;;;;;;;;;;;;;28.75;36.11;101319.88;2388974;74;51757;-75
2023/07/18 10:13:25;;;;;;;;;;;;;;;28.73;36.11;101318.73;2395115;74;50387;-75
2023/07/18 10:16:27;;;;;;;;;;;;;;;28.71;36.13;101315.95;2395114;73;50161;-75
2023/07/18 10:19:28;;;;;;;;;;;;;;;28.71;36.11;101316.77;2395784;73;50306;-75
2023/07/18 10:22:33;;;;;;;;;;;;;;;28.70;36.09;101309.67;2389064;74;53247;-75
2023/07/18 10:25:35;;;;;;;;;;;;;;;28.71;36.04;101315.41;2390488;74;50643;-75
2023/07/18 10:28:44;;;;;;;;;;;;;;;28.69;36.01;101303.91;2397037;73;51454;-76
2023/07/18 10:31:45;;;;;;;;;;;;;;;28.67;36.02;101299.26;2397190;74;51291;-75
2023/07/18 10:34:53;;;;;;;;;;;;;;;28.68;35.98;101301.44;2397364;74;51365;-75
2023/07/18 10:37:56;;;;;;;;;;;;;;;28.66;35.94;101295.68;2391091;74;50655;-76
2023/07/18 10:40:57;;;;;;;;;;;;;;;28.64;35.98;101291.53;2397383;74;50396;-76
2023/07/18 10:43:59;;;;;;;;;;;;;;;28.62;35.89;101283.62;2397202;73;50299;-75
2023/07/18 10:47:00;;;;;;;;;;;;;;;28.63;35.87;101279.00;2391346;74;50049;-75
2023/07/18 10:50:03;;;;;;;;;;;;;;;28.63;35.84;101279.00;2397295;73;50616;-75
2023/07/18 10:53:05;;;;;;;;;;;;;;;28.61;35.87;101270.23;2391157;74;51639;-75
2023/07/18 10:56:06;;;;;;;;;;;;;;;28.61;35.92;101270.23;2395353;74;51395;-76
2023/07/18 10:59:08;;;;;;;;;;;;;;;28.60;35.93;101250.87;2335165;74;52518;-75
2023/07/18 11:02:10;;;;;;;;;;;;;;;28.58;35.98;101257.09;2361688;74;50767;-74
2023/07/18 11:05:12;;;;;;;;;;;;;;;28.61;35.95;101250.63;2395205;74;50249;-75
2023/07/18 11:08:15;;;;;;;;;;;;;;;28.60;35.98;101249.52;2395056;74;51424;-75
2023/07/18 11:11:18;;;;;;;;;;;;;;;28.60;36.00;101236.73;2360420;74;51761;-74
2023/07/18 11:14:20;;;;;;;;;;;;;;;28.61;36.07;101234.83;2361968;74;51604;-75
2023/07/18 11:17:21;;;;;;;;;;;;;;;28.61;36.01;101237.55;2361709;74;51488;-75
2023/07/18 11:20:23;;;;;;;;;;;;;;;28.58;36.06;101225.77;2395366;73;50656;-74
2023/07/18 11:23:25;;;;;;;;;;;;;;;28.57;36.08;101230.40;2390007;74;52788;-75
2023/07/18 11:26:26;;;;;;;;;;;;;;;28.54;36.10;101228.16;2394929;74;50717;-74
2023/07/18 11:29:28;;;;;;;;;;;;;;;28.58;36.02;101217.61;2395330;73;50445;-75
2023/07/18 11:32:40;;;;;;;;;;;;;;;28.57;36.05;101214.59;2361980;74;51519;-75
2023/07/18 11:35:47;;;;;;;;;;;;;;;28.54;36.06;101206.87;2389528;74;50985;-74
2023/07/18 11:38:52;;;;;;;;;;;;;;;28.56;36.06;101203.39;2362386;74;50046;-74
2023/07/18 11:41:54;;;;;;;;;;;;;;;28.56;36.03;101211.56;2395328;74;51461;-75
2023/07/18 11:44:55;;;;;;;;;;;;;;;28.54;36.13;101202.80;2361929;74;50731;-75
2023/07/18 11:47:57;;;;;;;;;;;;;;;28.55;36.13;101203.94;2334961;74;51126;-75
2023/07/18 11:51:00;;;;;;;;;;;;;;;28.53;36.08;101194.34;2395321;74;51465;-74
2023/07/18 11:54:03;;;;;;;;;;;;;;;28.55;36.06;101194.94;2396023;74;52315;-75
2023/07/18 11:57:05;;;;;;;;;;;;;;;28.52;36.03;101186.72;2395021;73;51434;-75
2023/07/18 12:00:09;;;;;;;;;;;;;;;28.51;35.99;101191.84;2335261;74;51621;-75
2023/07/18 12:03:11;;;;;;;;;;;;;;;28.52;36.01;101187.25;2395264;74;50778;-75
2023/07/18 12:06:13;;;;;;;;;;;;;;;28.53;36.06;101180.73;2361368;74;50767;-75
2023/07/18 12:09:15;;;;;;;;;;;;;;;28.56;36.02;101188.42;2361368;74;50161;-75
2023/07/18 12:12:16;;;;;;;;;;;;;;;28.53;36.06;101183.45;2395049;74;51536;-76
2023/07/18 12:15:18;;;;;;;;;;;;;;;28.50;36.09;101179.31;2395174;74;50708;-75
2023/07/18 12:18:20;;;;;;;;;;;;;;;28.52;36.00;101186.72;2395013;74;51421;-75
2023/07/18 12:21:21;;;;;;;;;;;;;;;28.51;36.00;101178.23;2395175;74;50374;-75
2023/07/18 12:24:23;;;;;;;;;;;;;;;28.50;36.02;101178.48;2390047;74;51649;-75
2023/07/18 12:27:25;;;;;;;;;;;;;;;28.53;35.97;101174.75;2395147;74;51639;-76
2023/07/18 12:30:30;;;;;;;;;;;;;;;28.50;35.99;101183.94;2361651;74;50081;-75
2023/07/18 12:33:31;;;;;;;;;;;;;;;28.48;36.02;101171.09;2395254;74;22329;-76
2023/07/18 12:36:33;;;;;;;;;;;;;;;28.49;35.93;101171.38;2334716;74;51684;-75
2023/07/18 12:39:34;;;;;;;;;;;;;;;28.50;35.86;101172.51;2361684;74;51527;-75
2023/07/18 12:42:36;;;;;;;;;;;;;;;28.50;35.89;101158.08;2395125;73;50496;-75
2023/07/18 12:45:38;;;;;;;;;;;;;;;28.50;35.88;101165.70;2395222;74;51387;-75
2023/07/18 12:48:39;;;;;;;;;;;;;;;28.51;35.74;101149.65;2335522;74;52343;-75
2023/07/18 12:51:41;;;;;;;;;;;;;;;28.50;35.79;101151.27;2361935;74;51483;-75
2023/07/18 12:54:43;;;;;;;;;;;;;;;28.49;35.79;101151.80;2396068;73;51488;-76
2023/07/18 12:57:44;;;;;;;;;;;;;;;28.48;35.78;101145.23;2362700;74;53776;-75
2023/07/18 13:00:46;;;;;;;;;;;;;;;28.50;35.72;101135.75;2392687;73;50093;-78
2023/07/18 13:03:48;;;;;;;;;;;;;;;28.49;35.72;101155.89;2352192;74;50753;-76
2023/07/18 13:06:50;;;;;;;;;;;;;;;28.51;35.65;101144.20;2356457;75;50702;-76
2023/07/18 13:09:52;;;;;;;;;;;;;;;28.52;35.65;101149.14;2356702;75;50643;-75
2023/07/18 13:12:53;;;;;;;;;;;;;;;28.53;35.62;101133.09;2299809;75;51303;-75
2023/07/18 13:15:55;;;;;;;;;;;;;;;28.48;35.65;101143.33;2353088;74;50312;-74
2023/07/18 13:18:56;;;;;;;;;;;;;;;28.44;35.76;101136.18;2398813;73;50608;-76
2023/07/18 13:21:58;;;;;;;;;;;;;;;28.46;35.70;101136.46;2364140;74;51376;-75
2023/07/18 13:25:00;;;;;;;;;;;;;;;28.44;35.70;101147.06;2336141;74;52745;-76
2023/07/18 13:28:03;;;;;;;;;;;;;;;28.47;35.68;101142.22;2398211;73;50316;-75
2023/07/18 13:31:04;;;;;;;;;;;;;;;28.48;35.59;101130.25;2393795;74;51512;-74
2023/07/18 13:34:06;;;;;;;;;;;;;;;28.49;35.61;101126.45;2399900;73;51632;-74
2023/07/18 13:37:08;;;;;;;;;;;;;;;28.50;35.58;101120.78;2362493;74;51691;-74
2023/07/18 13:40:10;;;;;;;;;;;;;;;28.46;35.67;101125.03;2364203;74;51572;-75
2023/07/18 13:43:12;;;;;;;;;;;;;;;28.49;35.63;101114.20;2397645;73;50386;-75
2023/07/18 13:46:14;;;;;;;;;;;;;;;28.46;35.71;101111.96;2397478;74;51384;-75
2023/07/18 13:49:16;;;;;;;;;;;;;;;28.47;35.68;101103.56;2337345;74;51747;-75
2023/07/18 13:52:19;;;;;;;;;;;;;;;28.49;35.62;101108.76;2392296;74;51637;-75
2023/07/18 13:55:21;;;;;;;;;;;;;;;28.48;35.61;101094.86;2363454;74;50779;-75
2023/07/18 13:58:23;;;;;;;;;;;;;;;28.47;35.64;101088.59;2397253;74;50382;-75
2023/07/18 14:01:24;;;;;;;;;;;;;;;28.48;35.61;101083.97;2391359;73;51654;-75
2023/07/18 14:04:26;;;;;;;;;;;;;;;28.46;35.62;101077.39;2391390;73;51398;-76
2023/07/18 14:07:27;;;;;;;;;;;;;;;28.47;35.60;101076.89;2397188;74;51362;-75
2023/07/18 14:10:29;;;;;;;;;;;;;;;28.46;35.62;101070.59;2391628;74;49661;-75
2023/07/18 14:13:31;;;;;;;;;;;;;;;28.48;35.63;101075.27;2391408;74;49505;-76
2023/07/18 14:16:32;;;;;;;;;;;;;;;28.49;35.72;101065.20;2391080;73;51550;-76
2023/07/18 14:19:34;;;;;;;;;;;;;;;28.52;35.65;101070.19;2397525;74;51472;-76
2023/07/18 14:22:36;;;;;;;;;;;;;;;28.48;35.82;101059.47;2391948;73;50280;-76
2023/07/18 14:25:37;;;;;;;;;;;;;;;28.43;35.90;101060.16;2396545;74;49975;-75
2023/07/18 14:28:39;;;;;;;;;;;;;;;28.47;35.75;101046.94;2397044;73;50695;-75
2023/07/18 14:31:41;;;;;;;;;;;;;;;28.42;35.80;101047.08;2391488;73;51470;-75
2023/07/18 14:34:42;;;;;;;;;;;;;;;28.42;35.84;101038.92;2397415;74;50582;-76
2023/07/18 14:37:44;;;;;;;;;;;;;;;28.35;35.94;101035.49;2363026;74;53327;-75
2023/07/18 14:40:47;;;;;;;;;;;;;;;28.35;35.94;101025.97;2391413;74;51416;-75
2023/07/18 14:43:49;;;;;;;;;;;;;;;28.35;35.94;101024.61;2391839;74;22304;-75
2023/07/18 14:46:50;;;;;;;;;;;;;;;28.38;35.87;101020.58;2397173;74;51420;-76
2023/07/18 14:49:52;;;;;;;;;;;;;;;28.39;35.91;101016.27;2391463;73;50020;-76
2023/07/18 14:52:53;;;;;;;;;;;;;;;28.40;35.84;101000.22;2385565;74;50702;-77
2023/07/18 14:55:55;;;;;;;;;;;;;;;28.40;35.87;101001.58;2391525;74;52158;-76
2023/07/18 14:58:56;;;;;;;;;;;;;;;28.43;35.91;100993.46;2397205;73;51478;-76
2023/07/18 15:01:58;;;;;;;;;;;;;;;28.41;35.90;101001.89;2391384;74;52289;-76
2023/07/18 15:05:00;;;;;;;;;;;;;;;28.38;36.01;101000.16;2397260;74;52153;-75
2023/07/18 15:08:03;;;;;;;;;;;;;;;28.33;36.08;100992.71;2397064;74;51489;-75
2023/07/18 15:11:05;;;;;;;;;;;;;;;28.35;36.10;100993.84;2397405;74;50318;-76
2023/07/18 15:14:07;;;;;;;;;;;;;;;28.36;36.07;100987.33;2337357;74;52494;-76
2023/07/18 15:17:08;;;;;;;;;;;;;;;28.38;36.06;100985.20;2363652;74;50262;-75
2023/07/18 15:20:10;;;;;;;;;;;;;;;28.38;36.06;100979.21;2363611;74;50298;-74
2023/07/18 15:23:11;;;;;;;;;;;;;;;28.38;36.06;100979.21;2396472;73;51463;-75
2023/07/18 15:26:13;;;;;;;;;;;;;;;28.41;36.07;100982.84;2395374;74;50212;-77
2023/07/18 15:29:15;;;;;;;;;;;;;;;28.39;36.21;100971.90;2394784;73;51349;-76
2023/07/18 15:32:16;;;;;;;;;;;;;;;28.37;36.30;100968.58;2361510;74;50640;-76